sensor_id;sensor_type;location;lat;lon;timestamp;temperature;humidity
74484;SHT31;62942;52.462;10.846;2024-02-28T00:00:38;3.8;89.1
74484;SHT31;62942;52.462;10.846;2024-02-28T00:01:48;3.8;89.1
74484;SHT31;62942;52.462;10.846;2024-02-28T00:02:48;3.8;89.1
74484;SHT31;62942;52.462;10.846;2024-02-28T00:03:58;3.8;89.1
74484;SHT31;62942;52.462;10.846;2024-02-28T00:05:08;3.7;89.1
74484;SHT31;62942;52.462;10.846;2024-02-28T00:06:18;3.7;89.2
74484;SHT31;62942;52.462;10.846;2024-02-28T00:07:28;3.7;89.2
74484;SHT31;62942;52.462;10.846;2024-02-28T00:08:28;3.7;89.2
74484;SHT31;62942;52.462;10.846;2024-02-28T00:09:38;3.7;89.3
74484;SHT31;62942;52.462;10.846;2024-02-28T00:10:38;3.7;89.3
74484;SHT31;62942;52.462;10.846;2024-02-28T00:11:48;3.7;89.1
74484;SHT31;62942;52.462;10.846;2024-02-28T00:12:48;3.7;89
74484;SHT31;62942;52.462;10.846;2024-02-28T00:13:58;3.7;89.1
74484;SHT31;62942;52.462;10.846;2024-02-28T00:14:58;3.7;88.9
74484;SHT31;62942;52.462;10.846;2024-02-28T00:15:58;3.7;88.9
74484;SHT31;62942;52.462;10.846;2024-02-28T00:16:58;3.8;88.8
74484;SHT31;62942;52.462;10.846;2024-02-28T00:17:58;3.7;88.8
74484;SHT31;62942;52.462;10.846;2024-02-28T00:19:08;3.8;88.8
74484;SHT31;62942;52.462;10.846;2024-02-28T00:20:18;3.8;88.9
74484;SHT31;62942;52.462;10.846;2024-02-28T00:21:18;3.8;88.4
74484;SHT31;62942;52.462;10.846;2024-02-28T00:22:18;3.7;88.6
74484;SHT31;62942;52.462;10.846;2024-02-28T00:23:28;3.7;88.7
74484;SHT31;62942;52.462;10.846;2024-02-28T00:24:38;3.7;88.7
74484;SHT31;62942;52.462;10.846;2024-02-28T00:25:38;3.7;88.7
74484;SHT31;62942;52.462;10.846;2024-02-28T00:26:48;3.7;88.8
74484;SHT31;62942;52.462;10.846;2024-02-28T00:27:48;3.7;88.8
74484;SHT31;62942;52.462;10.846;2024-02-28T00:28:58;3.7;88.7
74484;SHT31;62942;52.462;10.846;2024-02-28T00:30:08;3.7;88.6
74484;SHT31;62942;52.462;10.846;2024-02-28T00:31:08;3.7;88.6
74484;SHT31;62942;52.462;10.846;2024-02-28T00:32:18;3.7;88.6
74484;SHT31;62942;52.462;10.846;2024-02-28T00:33:28;3.7;88.5
74484;SHT31;62942;52.462;10.846;2024-02-28T00:34:38;3.7;88.2
74484;SHT31;62942;52.462;10.846;2024-02-28T00:35:39;3.7;87.9
74484;SHT31;62942;52.462;10.846;2024-02-28T00:36:48;3.7;86.8
74484;SHT31;62942;52.462;10.846;2024-02-28T00:37:58;3.7;86.7
74484;SHT31;62942;52.462;10.846;2024-02-28T00:39:08;3.7;86.3
74484;SHT31;62942;52.462;10.846;2024-02-28T00:40:18;3.7;86.9
74484;SHT31;62942;52.462;10.846;2024-02-28T00:41:18;3.8;86.4
74484;SHT31;62942;52.462;10.846;2024-02-28T00:42:28;3.7;86.4
74484;SHT31;62942;52.462;10.846;2024-02-28T00:43:38;3.7;86.2
74484;SHT31;62942;52.462;10.846;2024-02-28T00:44:38;3.8;86
74484;SHT31;62942;52.462;10.846;2024-02-28T00:45:48;3.7;85.6
74484;SHT31;62942;52.462;10.846;2024-02-28T00:46:58;3.7;85.2
74484;SHT31;62942;52.462;10.846;2024-02-28T00:47:58;3.7;85
74484;SHT31;62942;52.462;10.846;2024-02-28T00:49:08;3.8;85
74484;SHT31;62942;52.462;10.846;2024-02-28T00:50:18;3.7;84.9
74484;SHT31;62942;52.462;10.846;2024-02-28T00:51:18;3.7;85.1
74484;SHT31;62942;52.462;10.846;2024-02-28T00:52:28;3.7;84.9
74484;SHT31;62942;52.462;10.846;2024-02-28T00:53:28;3.7;85
74484;SHT31;62942;52.462;10.846;2024-02-28T00:54:38;3.8;85
74484;SHT31;62942;52.462;10.846;2024-02-28T00:55:48;3.7;84.9
74484;SHT31;62942;52.462;10.846;2024-02-28T00:56:48;3.7;84.9
74484;SHT31;62942;52.462;10.846;2024-02-28T00:57:58;3.7;84.8
74484;SHT31;62942;52.462;10.846;2024-02-28T00:58:58;3.7;85
74484;SHT31;62942;52.462;10.846;2024-02-28T01:00:08;3.7;85
74484;SHT31;62942;52.462;10.846;2024-02-28T01:01:08;3.7;85
74484;SHT31;62942;52.462;10.846;2024-02-28T01:02:18;3.7;85.1
74484;SHT31;62942;52.462;10.846;2024-02-28T01:03:18;3.7;85.1
74484;SHT31;62942;52.462;10.846;2024-02-28T01:04:18;3.7;85.1
74484;SHT31;62942;52.462;10.846;2024-02-28T01:05:28;3.7;85.1
74484;SHT31;62942;52.462;10.846;2024-02-28T01:06:28;3.7;85.1
74484;SHT31;62942;52.462;10.846;2024-02-28T01:07:38;3.7;85.1
74484;SHT31;62942;52.462;10.846;2024-02-28T01:08:48;3.7;85.1
74484;SHT31;62942;52.462;10.846;2024-02-28T01:09:48;3.7;85
74484;SHT31;62942;52.462;10.846;2024-02-28T01:10:48;3.7;85
74484;SHT31;62942;52.462;10.846;2024-02-28T01:11:58;3.7;84.8
74484;SHT31;62942;52.462;10.846;2024-02-28T01:12:58;3.7;84.9
74484;SHT31;62942;52.462;10.846;2024-02-28T01:14:08;3.7;84.9
74484;SHT31;62942;52.462;10.846;2024-02-28T01:15:08;3.7;84.7
74484;SHT31;62942;52.462;10.846;2024-02-28T01:16:18;3.7;84.7
74484;SHT31;62942;52.462;10.846;2024-02-28T01:17:28;3.7;84.8
74484;SHT31;62942;52.462;10.846;2024-02-28T01:18:38;3.7;84.8
74484;SHT31;62942;52.462;10.846;2024-02-28T01:19:48;3.7;84.8
74484;SHT31;62942;52.462;10.846;2024-02-28T01:20:48;3.7;84.8
74484;SHT31;62942;52.462;10.846;2024-02-28T01:21:48;3.7;84.9
74484;SHT31;62942;52.462;10.846;2024-02-28T01:22:48;3.7;84.9
74484;SHT31;62942;52.462;10.846;2024-02-28T01:23:58;3.7;84.9
74484;SHT31;62942;52.462;10.846;2024-02-28T01:25:08;3.7;84.9
74484;SHT31;62942;52.462;10.846;2024-02-28T01:26:18;3.7;85
74484;SHT31;62942;52.462;10.846;2024-02-28T01:27:18;3.7;85
74484;SHT31;62942;52.462;10.846;2024-02-28T01:28:28;3.7;85
74484;SHT31;62942;52.462;10.846;2024-02-28T01:29:28;3.7;85
74484;SHT31;62942;52.462;10.846;2024-02-28T01:30:38;3.7;85.1
74484;SHT31;62942;52.462;10.846;2024-02-28T01:31:38;3.7;85.1
74484;SHT31;62942;52.462;10.846;2024-02-28T01:32:48;3.6;85.1
74484;SHT31;62942;52.462;10.846;2024-02-28T01:33:48;3.7;84.9
74484;SHT31;62942;52.462;10.846;2024-02-28T01:34:58;3.6;85
74484;SHT31;62942;52.462;10.846;2024-02-28T01:35:58;3.6;85
74484;SHT31;62942;52.462;10.846;2024-02-28T01:37:08;3.6;85
74484;SHT31;62942;52.462;10.846;2024-02-28T01:38:18;3.6;84.6
74484;SHT31;62942;52.462;10.846;2024-02-28T01:39:18;3.6;84.1
74484;SHT31;62942;52.462;10.846;2024-02-28T01:40:28;3.6;84.4
74484;SHT31;62942;52.462;10.846;2024-02-28T01:41:38;3.6;84.3
74484;SHT31;62942;52.462;10.846;2024-02-28T01:42:38;3.6;84.3
74484;SHT31;62942;52.462;10.846;2024-02-28T01:43:48;3.6;84.1
74484;SHT31;62942;52.462;10.846;2024-02-28T01:44:48;3.6;84.1
74484;SHT31;62942;52.462;10.846;2024-02-28T01:45:58;3.6;84
74484;SHT31;62942;52.462;10.846;2024-02-28T01:47:08;3.6;84
74484;SHT31;62942;52.462;10.846;2024-02-28T01:48:18;3.6;84.1
74484;SHT31;62942;52.462;10.846;2024-02-28T01:49:28;3.6;84.1
74484;SHT31;62942;52.462;10.846;2024-02-28T01:50:28;3.6;84.1
74484;SHT31;62942;52.462;10.846;2024-02-28T01:51:38;3.6;84.1
74484;SHT31;62942;52.462;10.846;2024-02-28T01:52:38;3.6;84.2
74484;SHT31;62942;52.462;10.846;2024-02-28T01:53:48;3.6;84.3
74484;SHT31;62942;52.462;10.846;2024-02-28T01:54:58;3.6;84.4
74484;SHT31;62942;52.462;10.846;2024-02-28T01:55:58;3.6;84.5
74484;SHT31;62942;52.462;10.846;2024-02-28T01:57:08;3.6;84.5
74484;SHT31;62942;52.462;10.846;2024-02-28T01:58:18;3.6;84.5
74484;SHT31;62942;52.462;10.846;2024-02-28T01:59:18;3.6;84.5
74484;SHT31;62942;52.462;10.846;2024-02-28T02:00:28;3.6;84.5
74484;SHT31;62942;52.462;10.846;2024-02-28T02:01:28;3.6;84.5
74484;SHT31;62942;52.462;10.846;2024-02-28T02:02:28;3.6;84.5
74484;SHT31;62942;52.462;10.846;2024-02-28T02:03:38;3.6;84.6
74484;SHT31;62942;52.462;10.846;2024-02-28T02:04:38;3.5;84.4
74484;SHT31;62942;52.462;10.846;2024-02-28T02:05:48;3.5;84.2
74484;SHT31;62942;52.462;10.846;2024-02-28T02:06:48;3.5;84.1
74484;SHT31;62942;52.462;10.846;2024-02-28T02:07:58;3.5;84.1
74484;SHT31;62942;52.462;10.846;2024-02-28T02:09:08;3.5;84
74484;SHT31;62942;52.462;10.846;2024-02-28T02:10:08;3.5;83.9
74484;SHT31;62942;52.462;10.846;2024-02-28T02:11:18;3.5;83.9
74484;SHT31;62942;52.462;10.846;2024-02-28T02:12:18;3.5;83.8
74484;SHT31;62942;52.462;10.846;2024-02-28T02:13:28;3.5;83.9
74484;SHT31;62942;52.462;10.846;2024-02-28T02:14:28;3.5;83.9
74484;SHT31;62942;52.462;10.846;2024-02-28T02:15:38;3.5;84
74484;SHT31;62942;52.462;10.846;2024-02-28T02:16:48;3.5;84
74484;SHT31;62942;52.462;10.846;2024-02-28T02:17:48;3.5;84
74484;SHT31;62942;52.462;10.846;2024-02-28T02:18:58;3.4;84
74484;SHT31;62942;52.462;10.846;2024-02-28T02:20:08;3.4;83.9
74484;SHT31;62942;52.462;10.846;2024-02-28T02:21:19;3.4;84
74484;SHT31;62942;52.462;10.846;2024-02-28T02:23:28;3.4;83.9
74484;SHT31;62942;52.462;10.846;2024-02-28T02:24:38;3.4;83.9
74484;SHT31;62942;52.462;10.846;2024-02-28T02:25:43;3.4;83.9
74484;SHT31;62942;52.462;10.846;2024-02-28T02:26:48;3.4;84
74484;SHT31;62942;52.462;10.846;2024-02-28T02:27:48;3.4;84
74484;SHT31;62942;52.462;10.846;2024-02-28T02:28:58;3.4;84.1
74484;SHT31;62942;52.462;10.846;2024-02-28T02:30:08;3.4;84.1
74484;SHT31;62942;52.462;10.846;2024-02-28T02:31:08;3.4;84.1
74484;SHT31;62942;52.462;10.846;2024-02-28T02:32:18;3.4;84.1
74484;SHT31;62942;52.462;10.846;2024-02-28T02:33:18;3.4;84.1
74484;SHT31;62942;52.462;10.846;2024-02-28T02:34:28;3.4;84.1
74484;SHT31;62942;52.462;10.846;2024-02-28T02:35:28;3.3;84.1
74484;SHT31;62942;52.462;10.846;2024-02-28T02:36:38;3.4;84.1
74484;SHT31;62942;52.462;10.846;2024-02-28T02:37:48;3.3;84.2
74484;SHT31;62942;52.462;10.846;2024-02-28T02:38:48;3.4;84.1
74484;SHT31;62942;52.462;10.846;2024-02-28T02:39:58;3.3;84.1
74484;SHT31;62942;52.462;10.846;2024-02-28T02:41:08;3.3;84.2
74484;SHT31;62942;52.462;10.846;2024-02-28T02:42:08;3.3;84.2
74484;SHT31;62942;52.462;10.846;2024-02-28T02:43:08;3.3;84.2
74484;SHT31;62942;52.462;10.846;2024-02-28T02:44:08;3.3;84.2
74484;SHT31;62942;52.462;10.846;2024-02-28T02:45:08;3.3;84.3
74484;SHT31;62942;52.462;10.846;2024-02-28T02:46:18;3.3;84.3
74484;SHT31;62942;52.462;10.846;2024-02-28T02:47:28;3.3;84.3
74484;SHT31;62942;52.462;10.846;2024-02-28T02:48:38;3.3;84.4
74484;SHT31;62942;52.462;10.846;2024-02-28T02:49:38;3.3;84.4
74484;SHT31;62942;52.462;10.846;2024-02-28T02:50:38;3.3;84.4
74484;SHT31;62942;52.462;10.846;2024-02-28T02:51:38;3.3;84.3
74484;SHT31;62942;52.462;10.846;2024-02-28T02:52:38;3.3;84.2
74484;SHT31;62942;52.462;10.846;2024-02-28T02:53:48;3.2;84.1
74484;SHT31;62942;52.462;10.846;2024-02-28T02:54:48;3.2;83.6
74484;SHT31;62942;52.462;10.846;2024-02-28T02:55:58;3.2;83.8
74484;SHT31;62942;52.462;10.846;2024-02-28T02:56:58;3.2;83.7
74484;SHT31;62942;52.462;10.846;2024-02-28T02:57:58;3.2;83.8
74484;SHT31;62942;52.462;10.846;2024-02-28T02:59:08;3.2;83.8
74484;SHT31;62942;52.462;10.846;2024-02-28T03:00:08;3.2;83.9
74484;SHT31;62942;52.462;10.846;2024-02-28T03:01:18;3.1;83.9
74484;SHT31;62942;52.462;10.846;2024-02-28T03:02:18;3.2;84
74484;SHT31;62942;52.462;10.846;2024-02-28T03:03:28;3.1;84
74484;SHT31;62942;52.462;10.846;2024-02-28T03:04:38;3.1;84
74484;SHT31;62942;52.462;10.846;2024-02-28T03:05:38;3.1;84
74484;SHT31;62942;52.462;10.846;2024-02-28T03:06:38;3.1;84.1
74484;SHT31;62942;52.462;10.846;2024-02-28T03:07:48;3.1;84
74484;SHT31;62942;52.462;10.846;2024-02-28T03:08:58;3.1;84.1
74484;SHT31;62942;52.462;10.846;2024-02-28T03:09:58;3.1;84
74484;SHT31;62942;52.462;10.846;2024-02-28T03:11:08;3.1;83.9
74484;SHT31;62942;52.462;10.846;2024-02-28T03:12:08;3;83.9
74484;SHT31;62942;52.462;10.846;2024-02-28T03:13:18;3;83.8
74484;SHT31;62942;52.462;10.846;2024-02-28T03:14:18;3;83.9
74484;SHT31;62942;52.462;10.846;2024-02-28T03:15:28;3;83.9
74484;SHT31;62942;52.462;10.846;2024-02-28T03:16:28;3;83.9
74484;SHT31;62942;52.462;10.846;2024-02-28T03:17:38;3;83.9
74484;SHT31;62942;52.462;10.846;2024-02-28T03:18:38;3;83.9
74484;SHT31;62942;52.462;10.846;2024-02-28T03:19:38;3;84
74484;SHT31;62942;52.462;10.846;2024-02-28T03:20:48;3;84
74484;SHT31;62942;52.462;10.846;2024-02-28T03:21:48;3;84
74484;SHT31;62942;52.462;10.846;2024-02-28T03:22:48;3;84
74484;SHT31;62942;52.462;10.846;2024-02-28T03:23:58;3;84.1
74484;SHT31;62942;52.462;10.846;2024-02-28T03:24:58;3;84.1
74484;SHT31;62942;52.462;10.846;2024-02-28T03:26:08;3;84.2
74484;SHT31;62942;52.462;10.846;2024-02-28T03:27:08;3;84.1
74484;SHT31;62942;52.462;10.846;2024-02-28T03:28:18;3;84.2
74484;SHT31;62942;52.462;10.846;2024-02-28T03:29:28;3;84.2
74484;SHT31;62942;52.462;10.846;2024-02-28T03:30:28;3;84.2
74484;SHT31;62942;52.462;10.846;2024-02-28T03:31:38;3;84.2
74484;SHT31;62942;52.462;10.846;2024-02-28T03:32:48;3;84.1
74484;SHT31;62942;52.462;10.846;2024-02-28T03:33:48;3;84.1
74484;SHT31;62942;52.462;10.846;2024-02-28T03:34:58;3;84.2
74484;SHT31;62942;52.462;10.846;2024-02-28T03:36:08;3;84.2
74484;SHT31;62942;52.462;10.846;2024-02-28T03:37:08;3;84.1
74484;SHT31;62942;52.462;10.846;2024-02-28T03:38:18;3;84.1
74484;SHT31;62942;52.462;10.846;2024-02-28T03:39:28;3;84.1
74484;SHT31;62942;52.462;10.846;2024-02-28T03:40:28;3;84
74484;SHT31;62942;52.462;10.846;2024-02-28T03:41:38;3;84.1
74484;SHT31;62942;52.462;10.846;2024-02-28T03:42:38;3;84
74484;SHT31;62942;52.462;10.846;2024-02-28T03:43:48;3;84
74484;SHT31;62942;52.462;10.846;2024-02-28T03:44:48;3;84
74484;SHT31;62942;52.462;10.846;2024-02-28T03:45:58;3;84
74484;SHT31;62942;52.462;10.846;2024-02-28T03:47:08;3;84
74484;SHT31;62942;52.462;10.846;2024-02-28T03:48:08;3;84
74484;SHT31;62942;52.462;10.846;2024-02-28T03:49:18;3;84
74484;SHT31;62942;52.462;10.846;2024-02-28T03:50:18;3;84
74484;SHT31;62942;52.462;10.846;2024-02-28T03:51:28;3;83.9
74484;SHT31;62942;52.462;10.846;2024-02-28T03:52:38;3;84
74484;SHT31;62942;52.462;10.846;2024-02-28T03:53:38;3;83.9
74484;SHT31;62942;52.462;10.846;2024-02-28T03:54:38;2.9;83.9
74484;SHT31;62942;52.462;10.846;2024-02-28T03:55:48;2.9;83.8
74484;SHT31;62942;52.462;10.846;2024-02-28T03:56:58;2.9;83.6
74484;SHT31;62942;52.462;10.846;2024-02-28T03:57:58;2.9;83.2
74484;SHT31;62942;52.462;10.846;2024-02-28T03:58:57;2.9;83.1
74484;SHT31;62942;52.462;10.846;2024-02-28T04:00:08;2.8;83.1
74484;SHT31;62942;52.462;10.846;2024-02-28T04:01:07;2.8;83.1
74484;SHT31;62942;52.462;10.846;2024-02-28T04:02:08;2.7;82.9
74484;SHT31;62942;52.462;10.846;2024-02-28T04:03:07;2.7;83.1
74484;SHT31;62942;52.462;10.846;2024-02-28T04:04:18;2.7;83.2
74484;SHT31;62942;52.462;10.846;2024-02-28T04:05:28;2.6;83.3
74484;SHT31;62942;52.462;10.846;2024-02-28T04:06:38;2.6;83.4
74484;SHT31;62942;52.462;10.846;2024-02-28T04:07:48;2.6;83.4
74484;SHT31;62942;52.462;10.846;2024-02-28T04:08:48;2.6;83.4
74484;SHT31;62942;52.462;10.846;2024-02-28T04:09:58;2.6;83.5
74484;SHT31;62942;52.462;10.846;2024-02-28T04:11:08;2.6;83.6
74484;SHT31;62942;52.462;10.846;2024-02-28T04:12:18;2.6;83.7
74484;SHT31;62942;52.462;10.846;2024-02-28T04:13:18;2.6;83.9
74484;SHT31;62942;52.462;10.846;2024-02-28T04:14:28;2.6;83.9
74484;SHT31;62942;52.462;10.846;2024-02-28T04:15:37;2.6;84.1
74484;SHT31;62942;52.462;10.846;2024-02-28T04:16:40;2.6;84
74484;SHT31;62942;52.462;10.846;2024-02-28T04:17:38;2.6;84.3
74484;SHT31;62942;52.462;10.846;2024-02-28T04:18:47;2.6;84.3
74484;SHT31;62942;52.462;10.846;2024-02-28T04:19:47;2.6;84.3
74484;SHT31;62942;52.462;10.846;2024-02-28T04:20:48;2.6;84.5
74484;SHT31;62942;52.462;10.846;2024-02-28T04:21:48;2.6;84.6
74484;SHT31;62942;52.462;10.846;2024-02-28T04:22:57;2.6;84.6
74484;SHT31;62942;52.462;10.846;2024-02-28T04:23:58;2.6;84.6
74484;SHT31;62942;52.462;10.846;2024-02-28T04:24:57;2.6;84.7
74484;SHT31;62942;52.462;10.846;2024-02-28T04:26:07;2.6;84.8
74484;SHT31;62942;52.462;10.846;2024-02-28T04:27:07;2.6;84.8
74484;SHT31;62942;52.462;10.846;2024-02-28T04:28:18;2.6;84.9
74484;SHT31;62942;52.462;10.846;2024-02-28T04:29:18;2.5;84.9
74484;SHT31;62942;52.462;10.846;2024-02-28T04:30:27;2.5;84.8
74484;SHT31;62942;52.462;10.846;2024-02-28T04:31:27;2.5;84.9
74484;SHT31;62942;52.462;10.846;2024-02-28T04:32:27;2.5;84.8
74484;SHT31;62942;52.462;10.846;2024-02-28T04:33:38;2.5;84.8
74484;SHT31;62942;52.462;10.846;2024-02-28T04:34:47;2.5;84.9
74484;SHT31;62942;52.462;10.846;2024-02-28T04:35:47;2.5;84.9
74484;SHT31;62942;52.462;10.846;2024-02-28T04:36:57;2.5;85
74484;SHT31;62942;52.462;10.846;2024-02-28T04:37:57;2.5;85
74484;SHT31;62942;52.462;10.846;2024-02-28T04:38:58;2.5;85
74484;SHT31;62942;52.462;10.846;2024-02-28T04:40:08;2.4;85
74484;SHT31;62942;52.462;10.846;2024-02-28T04:41:17;2.4;85
74484;SHT31;62942;52.462;10.846;2024-02-28T04:42:27;2.4;85
74484;SHT31;62942;52.462;10.846;2024-02-28T04:43:28;2.4;85
74484;SHT31;62942;52.462;10.846;2024-02-28T04:44:27;2.4;84.8
74484;SHT31;62942;52.462;10.846;2024-02-28T04:45:37;2.4;84.7
74484;SHT31;62942;52.462;10.846;2024-02-28T04:46:47;2.4;84.7
74484;SHT31;62942;52.462;10.846;2024-02-28T04:47:47;2.4;84.5
74484;SHT31;62942;52.462;10.846;2024-02-28T04:48:47;2.4;84.6
74484;SHT31;62942;52.462;10.846;2024-02-28T04:49:57;2.4;84.6
74484;SHT31;62942;52.462;10.846;2024-02-28T04:50:59;2.4;84.5
74484;SHT31;62942;52.462;10.846;2024-02-28T04:52:08;2.4;84.5
74484;SHT31;62942;52.462;10.846;2024-02-28T04:53:17;2.4;84.5
74484;SHT31;62942;52.462;10.846;2024-02-28T04:54:27;2.4;84.5
74484;SHT31;62942;52.462;10.846;2024-02-28T04:55:28;2.4;84.4
74484;SHT31;62942;52.462;10.846;2024-02-28T04:56:27;2.4;84.4
74484;SHT31;62942;52.462;10.846;2024-02-28T04:57:37;2.4;84.4
74484;SHT31;62942;52.462;10.846;2024-02-28T04:58:37;2.5;84.4
74484;SHT31;62942;52.462;10.846;2024-02-28T04:59:47;2.5;84.4
74484;SHT31;62942;52.462;10.846;2024-02-28T05:00:47;2.5;84.5
74484;SHT31;62942;52.462;10.846;2024-02-28T05:01:47;2.5;84.5
74484;SHT31;62942;52.462;10.846;2024-02-28T05:02:57;2.5;84.5
74484;SHT31;62942;52.462;10.846;2024-02-28T05:03:57;2.5;84.5
74484;SHT31;62942;52.462;10.846;2024-02-28T05:05:08;2.5;84.5
74484;SHT31;62942;52.462;10.846;2024-02-28T05:06:17;2.5;84.6
74484;SHT31;62942;52.462;10.846;2024-02-28T05:07:17;2.5;84.6
74484;SHT31;62942;52.462;10.846;2024-02-28T05:08:27;2.5;84.6
74484;SHT31;62942;52.462;10.846;2024-02-28T05:09:27;2.5;84.6
74484;SHT31;62942;52.462;10.846;2024-02-28T05:10:37;2.5;84.7
74484;SHT31;62942;52.462;10.846;2024-02-28T05:11:37;2.5;84.7
74484;SHT31;62942;52.462;10.846;2024-02-28T05:12:37;2.5;84.8
74484;SHT31;62942;52.462;10.846;2024-02-28T05:13:47;2.5;84.9
74484;SHT31;62942;52.462;10.846;2024-02-28T05:14:57;2.5;84.8
74484;SHT31;62942;52.462;10.846;2024-02-28T05:16:11;2.5;84.8
74484;SHT31;62942;52.462;10.846;2024-02-28T05:17:07;2.5;84.9
74484;SHT31;62942;52.462;10.846;2024-02-28T05:18:07;2.5;84.9
74484;SHT31;62942;52.462;10.846;2024-02-28T05:19:17;2.5;84.9
74484;SHT31;62942;52.462;10.846;2024-02-28T05:20:27;2.5;84.9
74484;SHT31;62942;52.462;10.846;2024-02-28T05:21:27;2.5;85
74484;SHT31;62942;52.462;10.846;2024-02-28T05:22:37;2.5;84.9
74484;SHT31;62942;52.462;10.846;2024-02-28T05:23:47;2.5;85
74484;SHT31;62942;52.462;10.846;2024-02-28T05:24:57;2.5;85
74484;SHT31;62942;52.462;10.846;2024-02-28T05:26:07;2.5;84.9
74484;SHT31;62942;52.462;10.846;2024-02-28T05:27:17;2.5;84.6
74484;SHT31;62942;52.462;10.846;2024-02-28T05:28:17;2.5;84.6
74484;SHT31;62942;52.462;10.846;2024-02-28T05:29:27;2.5;84.6
74484;SHT31;62942;52.462;10.846;2024-02-28T05:30:27;2.5;84.5
74484;SHT31;62942;52.462;10.846;2024-02-28T05:31:37;2.5;84.5
74484;SHT31;62942;52.462;10.846;2024-02-28T05:32:47;2.4;84.5
74484;SHT31;62942;52.462;10.846;2024-02-28T05:33:58;2.4;84.5
74484;SHT31;62942;52.462;10.846;2024-02-28T05:35:07;2.4;84.5
74484;SHT31;62942;52.462;10.846;2024-02-28T05:36:07;2.4;84.4
74484;SHT31;62942;52.462;10.846;2024-02-28T05:37:07;2.4;84.4
74484;SHT31;62942;52.462;10.846;2024-02-28T05:38:07;2.4;84.4
74484;SHT31;62942;52.462;10.846;2024-02-28T05:39:17;2.4;84.3
74484;SHT31;62942;52.462;10.846;2024-02-28T05:40:17;2.4;84.4
74484;SHT31;62942;52.462;10.846;2024-02-28T05:41:27;2.4;84.4
74484;SHT31;62942;52.462;10.846;2024-02-28T05:42:27;2.4;84.4
74484;SHT31;62942;52.462;10.846;2024-02-28T05:43:37;2.3;84.5
74484;SHT31;62942;52.462;10.846;2024-02-28T05:44:37;2.3;84.6
74484;SHT31;62942;52.462;10.846;2024-02-28T05:45:48;2.3;84.5
74484;SHT31;62942;52.462;10.846;2024-02-28T05:46:57;2.3;84.6
74484;SHT31;62942;52.462;10.846;2024-02-28T05:47:57;2.3;84.7
74484;SHT31;62942;52.462;10.846;2024-02-28T05:49:07;2.2;84.7
74484;SHT31;62942;52.462;10.846;2024-02-28T05:50:17;2.2;84.7
74484;SHT31;62942;52.462;10.846;2024-02-28T05:51:27;2.2;84.8
74484;SHT31;62942;52.462;10.846;2024-02-28T05:52:27;2.2;84.8
74484;SHT31;62942;52.462;10.846;2024-02-28T05:53:37;2.2;84.9
74484;SHT31;62942;52.462;10.846;2024-02-28T05:54:47;2.2;84.9
74484;SHT31;62942;52.462;10.846;2024-02-28T05:55:47;2.2;84.8
74484;SHT31;62942;52.462;10.846;2024-02-28T05:56:57;2.2;84.8
74484;SHT31;62942;52.462;10.846;2024-02-28T05:58:07;2.2;84.8
74484;SHT31;62942;52.462;10.846;2024-02-28T05:59:07;2.2;84.9
74484;SHT31;62942;52.462;10.846;2024-02-28T06:00:18;2.2;84.8
74484;SHT31;62942;52.462;10.846;2024-02-28T06:01:17;2.3;84.9
74484;SHT31;62942;52.462;10.846;2024-02-28T06:02:17;2.2;84.9
74484;SHT31;62942;52.462;10.846;2024-02-28T06:03:27;2.3;84.9
74484;SHT31;62942;52.462;10.846;2024-02-28T06:04:27;2.3;85
74484;SHT31;62942;52.462;10.846;2024-02-28T06:05:37;2.2;85
74484;SHT31;62942;52.462;10.846;2024-02-28T06:06:37;2.3;85.1
74484;SHT31;62942;52.462;10.846;2024-02-28T06:07:47;2.3;85.1
74484;SHT31;62942;52.462;10.846;2024-02-28T06:08:57;2.3;84.9
74484;SHT31;62942;52.462;10.846;2024-02-28T06:10:07;2.3;84.9
74484;SHT31;62942;52.462;10.846;2024-02-28T06:11:17;2.3;84.9
74484;SHT31;62942;52.462;10.846;2024-02-28T06:12:27;2.3;84.9
74484;SHT31;62942;52.462;10.846;2024-02-28T06:13:27;2.3;84.8
74484;SHT31;62942;52.462;10.846;2024-02-28T06:14:27;2.3;84.8
74484;SHT31;62942;52.462;10.846;2024-02-28T06:15:37;2.3;84.7
74484;SHT31;62942;52.462;10.846;2024-02-28T06:16:47;2.3;84.5
74484;SHT31;62942;52.462;10.846;2024-02-28T06:17:57;2.3;84.6
74484;SHT31;62942;52.462;10.846;2024-02-28T06:18:57;2.3;84.6
74484;SHT31;62942;52.462;10.846;2024-02-28T06:20:07;2.3;84.6
74484;SHT31;62942;52.462;10.846;2024-02-28T06:21:17;2.3;84.8
74484;SHT31;62942;52.462;10.846;2024-02-28T06:22:27;2.3;84.8
74484;SHT31;62942;52.462;10.846;2024-02-28T06:23:27;2.3;84.8
74484;SHT31;62942;52.462;10.846;2024-02-28T06:24:37;2.3;84.8
74484;SHT31;62942;52.462;10.846;2024-02-28T06:25:47;2.4;84.8
74484;SHT31;62942;52.462;10.846;2024-02-28T06:26:57;2.4;84.8
74484;SHT31;62942;52.462;10.846;2024-02-28T06:27:57;2.4;84.7
74484;SHT31;62942;52.462;10.846;2024-02-28T06:28:57;2.4;84.8
74484;SHT31;62942;52.462;10.846;2024-02-28T06:30:08;2.4;84.8
74484;SHT31;62942;52.462;10.846;2024-02-28T06:31:11;2.4;84.8
74484;SHT31;62942;52.462;10.846;2024-02-28T06:32:17;2.4;84.7
74484;SHT31;62942;52.462;10.846;2024-02-28T06:33:27;2.4;84.7
74484;SHT31;62942;52.462;10.846;2024-02-28T06:34:27;2.4;84.7
74484;SHT31;62942;52.462;10.846;2024-02-28T06:35:37;2.5;84.6
74484;SHT31;62942;52.462;10.846;2024-02-28T06:36:47;2.5;84.6
74484;SHT31;62942;52.462;10.846;2024-02-28T06:37:47;2.5;84.6
74484;SHT31;62942;52.462;10.846;2024-02-28T06:38:58;2.5;84.5
74484;SHT31;62942;52.462;10.846;2024-02-28T06:39:57;2.5;84.5
74484;SHT31;62942;52.462;10.846;2024-02-28T06:41:07;2.5;84.5
74484;SHT31;62942;52.462;10.846;2024-02-28T06:42:17;2.5;84.5
74484;SHT31;62942;52.462;10.846;2024-02-28T06:43:17;2.5;84.5
74484;SHT31;62942;52.462;10.846;2024-02-28T06:44:27;2.5;84.5
74484;SHT31;62942;52.462;10.846;2024-02-28T06:45:37;2.5;84.5
74484;SHT31;62942;52.462;10.846;2024-02-28T06:46:37;2.5;84.4
74484;SHT31;62942;52.462;10.846;2024-02-28T06:47:47;2.5;84.4
74484;SHT31;62942;52.462;10.846;2024-02-28T06:48:57;2.5;84.4
74484;SHT31;62942;52.462;10.846;2024-02-28T06:49:57;2.5;84.4
74484;SHT31;62942;52.462;10.846;2024-02-28T06:51:07;2.5;84.4
74484;SHT31;62942;52.462;10.846;2024-02-28T06:52:07;2.5;84.4
74484;SHT31;62942;52.462;10.846;2024-02-28T06:53:17;2.5;84.5
74484;SHT31;62942;52.462;10.846;2024-02-28T06:54:27;2.6;84.5
74484;SHT31;62942;52.462;10.846;2024-02-28T06:55:37;2.6;84.6
74484;SHT31;62942;52.462;10.846;2024-02-28T06:56:37;2.6;84.6
74484;SHT31;62942;52.462;10.846;2024-02-28T06:57:38;2.6;84.6
74484;SHT31;62942;52.462;10.846;2024-02-28T06:58:47;2.6;84.6
74484;SHT31;62942;52.462;10.846;2024-02-28T06:59:47;2.6;84.6
74484;SHT31;62942;52.462;10.846;2024-02-28T07:00:57;2.7;84.5
74484;SHT31;62942;52.462;10.846;2024-02-28T07:02:07;2.8;84.5
74484;SHT31;62942;52.462;10.846;2024-02-28T07:03:17;2.8;84.4
74484;SHT31;62942;52.462;10.846;2024-02-28T07:04:27;2.8;84.3
74484;SHT31;62942;52.462;10.846;2024-02-28T07:05:37;2.9;84
74484;SHT31;62942;52.462;10.846;2024-02-28T07:06:47;2.9;84.1
74484;SHT31;62942;52.462;10.846;2024-02-28T07:07:47;2.9;84
74484;SHT31;62942;52.462;10.846;2024-02-28T07:08:57;3;84
74484;SHT31;62942;52.462;10.846;2024-02-28T07:10:08;3;83.9
74484;SHT31;62942;52.462;10.846;2024-02-28T07:11:17;3;83.8
74484;SHT31;62942;52.462;10.846;2024-02-28T07:12:17;3.1;83.7
74484;SHT31;62942;52.462;10.846;2024-02-28T07:13:17;3.1;83.5